createdAt,value
2023-05-05T00:02:08.414Z,4.20
2023-05-05T00:19:14.104Z,3.78
2023-05-05T00:21:40.760Z,4.07
2023-05-05T00:24:07.715Z,4.10
2023-05-05T00:26:34.966Z,4.95
2023-05-05T00:29:01.548Z,4.82
2023-05-05T00:31:28.303Z,4.50
2023-05-05T00:33:55.046Z,5.20
2023-05-05T00:36:21.625Z,5.30
2023-05-05T00:38:48.820Z,4.90
2023-05-05T00:41:15.842Z,4.80
2023-05-05T00:43:42.569Z,5.53
2023-05-05T00:46:24.602Z,5.30
2023-05-05T00:48:51.576Z,5.70
2023-05-05T00:51:20.033Z,5.65
2023-05-05T00:53:48.291Z,5.40
2023-05-05T00:56:17.199Z,5.43
2023-05-05T00:58:44.405Z,5.78
2023-05-05T01:01:11.975Z,6.00
2023-05-05T01:03:39.850Z,5.82
2023-05-05T01:06:39.248Z,5.60
2023-05-05T01:09:19.751Z,6.38
2023-05-05T01:11:51.392Z,8.05
2023-05-05T01:14:25.998Z,5.78
2023-05-05T01:17:00.039Z,5.85
2023-05-05T01:19:51.261Z,6.80
2023-05-05T01:22:23.057Z,6.78
2023-05-05T01:25:15.804Z,7.43
2023-05-05T01:27:59.374Z,7.25
2023-05-05T01:30:49.961Z,7.38
2023-05-05T01:33:24.556Z,7.20
2023-05-05T01:35:56.774Z,7.68
2023-05-05T01:38:29.880Z,7.03
2023-05-05T01:41:11.806Z,8.63
2023-05-05T01:43:40.490Z,8.25
2023-05-05T01:46:08.812Z,8.18
2023-05-05T01:48:37.007Z,7.78
2023-05-05T01:51:05.316Z,9.05
2023-05-05T01:53:33.426Z,8.07
2023-05-05T01:56:01.407Z,8.30
2023-05-05T02:00:58.176Z,8.63
2023-05-05T02:03:27.767Z,9.13
2023-05-05T02:05:55.327Z,9.00
2023-05-05T02:08:23.648Z,8.93
2023-05-05T02:10:50.670Z,9.15
2023-05-05T02:13:18.852Z,8.82
2023-05-05T02:15:49.471Z,8.63
2023-05-05T02:18:16.615Z,8.98
2023-05-05T02:20:43.924Z,9.63
2023-05-05T02:23:10.724Z,7.93
2023-05-05T02:25:42.288Z,8.70
2023-05-05T02:28:15.304Z,8.35
2023-05-05T02:30:43.825Z,7.93
2023-05-05T02:33:13.136Z,7.20
2023-05-05T02:35:42.248Z,6.88
2023-05-05T02:38:17.288Z,6.38
2023-05-05T02:40:46.242Z,6.25
2023-05-05T02:43:18.232Z,6.05
2023-05-05T02:45:45.069Z,5.90
2023-05-05T02:48:13.457Z,4.80
2023-05-05T02:50:40.083Z,5.47
2023-05-05T02:53:06.627Z,5.25
2023-05-05T02:55:53.235Z,4.20
2023-05-05T02:58:33.800Z,3.70
2023-05-05T03:01:16.271Z,4.05
2023-05-05T03:04:18.590Z,3.55
2023-05-05T03:06:54.020Z,3.30
2023-05-05T03:09:33.268Z,2.75
2023-05-05T03:12:03.776Z,3.35
2023-05-05T03:14:37.429Z,2.42
2023-05-05T03:17:05.661Z,2.10
2023-05-05T03:19:32.409Z,1.85
2023-05-05T03:21:59.551Z,2.25
2023-05-05T03:24:26.056Z,2.03
2023-05-05T03:26:53.538Z,2.40
2023-05-05T03:29:20.321Z,2.00
2023-05-05T03:31:47.289Z,2.17
2023-05-05T03:34:13.826Z,2.22
2023-05-05T03:36:40.593Z,2.05
2023-05-05T03:39:07.239Z,2.55
2023-05-05T03:41:33.864Z,2.20
2023-05-05T03:44:00.504Z,1.90
2023-05-05T03:46:28.189Z,2.83
2023-05-05T03:48:57.193Z,3.17
2023-05-05T03:51:25.521Z,2.08
2023-05-05T03:53:52.308Z,2.53
2023-05-05T03:56:18.799Z,2.60
2023-05-05T03:58:46.586Z,2.40
2023-05-05T04:01:14.588Z,2.22
2023-05-05T04:03:41.250Z,2.35
2023-05-05T04:06:07.928Z,2.45
2023-05-05T04:08:34.438Z,2.55
2023-05-05T04:11:03.594Z,2.10
2023-05-05T04:13:30.194Z,2.55
2023-05-05T04:15:59.846Z,3.35
2023-05-05T04:18:26.730Z,2.45
2023-05-05T04:20:53.372Z,2.58
2023-05-05T04:23:19.972Z,2.60
2023-05-05T04:25:46.672Z,2.63
2023-05-05T04:28:13.433Z,3.15
2023-05-05T04:30:40.569Z,3.50
2023-05-05T04:33:07.026Z,2.65
2023-05-05T04:35:33.709Z,2.78
2023-05-05T04:38:00.573Z,3.65
2023-05-05T04:40:27.114Z,3.53
2023-05-05T04:42:53.915Z,3.13
2023-05-05T04:45:20.578Z,3.47
2023-05-05T04:47:47.465Z,3.08
2023-05-05T04:50:13.978Z,2.75
2023-05-05T04:52:40.566Z,3.08
2023-05-05T04:55:08.974Z,3.33
2023-05-05T04:57:35.650Z,2.97
2023-05-05T05:00:04.920Z,2.58
2023-05-05T05:02:31.463Z,2.92
2023-05-05T05:05:00.383Z,2.83
2023-05-05T05:07:26.935Z,3.45
2023-05-05T05:09:53.429Z,2.38
2023-05-05T05:12:19.980Z,2.58
2023-05-05T05:14:46.544Z,2.92
2023-05-05T05:17:13.084Z,3.38
2023-05-05T05:19:39.835Z,3.30
2023-05-05T05:22:06.299Z,3.30
2023-05-05T05:24:34.901Z,3.20
2023-05-05T05:27:01.945Z,3.67
2023-05-05T05:29:28.438Z,3.88
2023-05-05T05:31:54.968Z,3.78
2023-05-05T05:34:21.511Z,5.40
2023-05-05T05:36:47.998Z,3.35
2023-05-05T05:39:14.873Z,4.55
2023-05-05T05:41:43.666Z,4.82
2023-05-05T05:44:10.872Z,4.38
2023-05-05T05:46:38.054Z,4.38
2023-05-05T05:49:06.121Z,4.97
2023-05-05T05:51:32.613Z,5.10
2023-05-05T05:53:59.094Z,5.10
2023-05-05T05:56:25.579Z,5.90
2023-05-05T05:58:52.310Z,5.88
2023-05-05T06:01:18.979Z,5.82
2023-05-05T06:03:45.791Z,5.85
2023-05-05T06:06:12.344Z,5.57
2023-05-05T06:08:39.065Z,6.68
2023-05-05T06:11:05.820Z,7.00
2023-05-05T06:13:32.294Z,6.68
2023-05-05T06:15:58.845Z,6.85
2023-05-05T06:18:26.502Z,6.70
2023-05-05T06:20:53.292Z,7.18
2023-05-05T06:23:19.817Z,6.45
2023-05-05T06:25:46.732Z,6.38
2023-05-05T06:28:13.237Z,7.35
2023-05-05T06:30:39.841Z,6.78
2023-05-05T06:33:06.380Z,7.10
2023-05-05T06:35:33.141Z,6.90
2023-05-05T06:37:59.689Z,7.10
2023-05-05T06:40:26.247Z,6.68
2023-05-05T06:42:52.948Z,7.00
2023-05-05T06:45:19.639Z,5.78
2023-05-05T06:47:46.367Z,6.78
2023-05-05T06:50:13.149Z,5.95
2023-05-05T06:52:39.651Z,5.70
2023-05-05T06:55:06.651Z,5.10
2023-05-05T06:57:33.424Z,6.72
2023-05-05T07:00:00.227Z,6.03
2023-05-05T07:02:27.036Z,5.53
2023-05-05T07:04:55.714Z,5.43
2023-05-05T07:07:22.451Z,5.28
2023-05-05T07:09:49.241Z,4.93
2023-05-05T07:12:16.196Z,5.90
2023-05-05T07:14:43.027Z,5.55
2023-05-05T07:17:09.604Z,3.78
2023-05-05T07:19:36.198Z,5.38
2023-05-05T07:22:02.954Z,4.57
2023-05-05T07:24:29.511Z,5.15
2023-05-05T07:26:56.328Z,4.15
2023-05-05T07:29:24.293Z,4.65
2023-05-05T07:34:17.918Z,5.00
2023-05-05T07:36:44.621Z,4.18
2023-05-05T07:39:15.199Z,3.72
2023-05-05T07:41:45.011Z,3.50
2023-05-05T07:44:11.866Z,3.88
2023-05-05T07:46:38.451Z,3.80
2023-05-05T07:49:05.466Z,3.45
2023-05-05T07:51:33.958Z,4.53
2023-05-05T07:54:01.333Z,4.22
2023-05-05T07:56:27.816Z,4.35
2023-05-05T07:58:54.900Z,4.78
2023-05-05T08:01:21.526Z,3.15
2023-05-05T08:03:48.334Z,3.45
2023-05-05T08:06:16.657Z,3.17
2023-05-05T08:08:43.614Z,2.90
2023-05-05T08:11:10.329Z,3.13
2023-05-05T08:13:39.470Z,3.00
2023-05-05T08:16:06.524Z,3.00
2023-05-05T08:18:34.432Z,2.97
2023-05-05T08:21:01.281Z,2.97
2023-05-05T08:23:27.928Z,2.88
2023-05-05T08:25:54.479Z,3.15
2023-05-05T08:28:21.225Z,2.88
2023-05-05T08:30:47.863Z,2.90
2023-05-05T08:33:14.380Z,2.55
2023-05-05T08:35:42.834Z,1.95
2023-05-05T08:38:09.535Z,1.95
2023-05-05T08:40:38.344Z,1.70
2023-05-05T08:43:05.613Z,1.52
2023-05-05T08:45:32.822Z,1.25
2023-05-05T08:48:06.159Z,1.27
2023-05-05T08:50:33.185Z,0.68
2023-05-05T08:53:04.199Z,0.90
2023-05-05T08:55:34.985Z,0.85
2023-05-05T08:58:05.796Z,0.75
2023-05-05T09:00:33.796Z,0.40
2023-05-05T09:03:01.514Z,0.68
2023-05-05T09:05:29.821Z,0.60
2023-05-05T09:07:58.177Z,0.63
2023-05-05T09:10:28.727Z,0.73
2023-05-05T09:12:56.053Z,1.20
2023-05-05T09:15:22.975Z,1.05
2023-05-05T09:17:49.560Z,0.60
2023-05-05T09:20:16.197Z,1.13
2023-05-05T09:22:45.101Z,0.93
2023-05-05T09:25:13.347Z,0.80
2023-05-05T09:27:46.641Z,0.77
2023-05-05T09:30:27.020Z,0.75
2023-05-05T09:32:55.317Z,0.77
2023-05-05T09:35:23.186Z,0.80
2023-05-05T09:40:18.684Z,1.00
2023-05-05T09:42:45.700Z,1.00
2023-05-05T09:45:18.373Z,1.00
2023-05-05T09:47:48.904Z,1.65
2023-05-05T09:50:21.060Z,1.90
2023-05-05T09:53:03.652Z,1.77
2023-05-05T09:55:36.098Z,1.60
2023-05-05T09:58:19.528Z,2.42
2023-05-05T10:00:46.743Z,2.55
2023-05-05T10:03:14.051Z,2.08
2023-05-05T10:06:00.984Z,2.80
2023-05-05T10:08:34.196Z,2.55
2023-05-05T10:11:07.187Z,2.42
2023-05-05T10:13:39.986Z,3.10
2023-05-05T10:16:09.186Z,2.80
2023-05-05T10:18:38.296Z,3.17
2023-05-05T10:21:04.951Z,3.13
2023-05-05T10:23:49.331Z,2.70
2023-05-05T10:26:17.156Z,2.45
2023-05-05T10:28:57.106Z,2.05
2023-05-05T10:31:41.751Z,2.33
2023-05-05T10:34:18.250Z,1.65
2023-05-05T10:36:45.461Z,2.88
2023-05-05T10:39:14.933Z,2.47
2023-05-05T10:41:42.112Z,2.45
2023-05-05T10:44:10.972Z,2.83
2023-05-05T10:46:39.031Z,2.60
2023-05-05T10:49:24.008Z,3.05
2023-05-05T10:52:06.206Z,2.53
2023-05-05T10:54:55.002Z,2.78
2023-05-05T10:57:25.583Z,2.97
2023-05-05T10:59:52.021Z,2.42
2023-05-05T11:02:25.240Z,2.90
2023-05-05T11:05:22.514Z,2.70
2023-05-05T11:07:51.504Z,2.47
2023-05-05T11:10:20.692Z,2.80
2023-05-05T11:13:00.211Z,2.72
2023-05-05T11:15:30.334Z,2.53
2023-05-05T11:17:59.126Z,2.42
2023-05-05T11:20:39.783Z,2.70
2023-05-05T11:23:06.544Z,4.40
2023-05-05T11:25:36.644Z,2.95
2023-05-05T11:28:21.694Z,3.55
2023-05-05T11:30:58.017Z,2.92
2023-05-05T11:33:37.070Z,3.83
2023-05-05T11:36:06.699Z,3.40
2023-05-05T11:39:11.115Z,3.17
2023-05-05T11:41:54.987Z,2.63
2023-05-05T11:44:31.116Z,3.10
2023-05-05T11:46:57.655Z,3.22
2023-05-05T11:49:31.678Z,3.55
2023-05-05T11:52:09.804Z,2.78
2023-05-05T11:54:38.810Z,3.20
2023-05-05T11:57:07.274Z,4.53
2023-05-05T11:59:49.643Z,3.80
2023-05-05T12:02:17.711Z,3.50
2023-05-05T12:07:18.518Z,4.07
2023-05-05T12:09:46.588Z,5.03
2023-05-05T12:14:53.261Z,4.00
2023-05-05T12:17:21.301Z,4.80
2023-05-05T12:22:34.356Z,4.60
2023-05-05T12:25:06.618Z,5.78
2023-05-05T12:27:34.074Z,5.15
2023-05-05T12:30:18.085Z,5.15
2023-05-05T12:32:45.551Z,5.60
2023-05-05T12:35:13.836Z,5.82
2023-05-05T12:37:41.699Z,5.97
2023-05-05T12:40:44.023Z,5.55
2023-05-05T12:43:23.793Z,5.45
2023-05-05T12:46:03.577Z,5.90
2023-05-05T12:48:30.739Z,5.68
2023-05-05T12:51:10.826Z,5.72
2023-05-05T12:53:37.769Z,6.20
2023-05-05T12:56:04.771Z,5.35
2023-05-05T12:58:49.883Z,6.32
2023-05-05T13:01:16.461Z,6.25
2023-05-05T13:03:43.185Z,6.20
2023-05-05T13:06:24.531Z,5.60
2023-05-05T13:08:52.051Z,5.55
2023-05-05T13:11:18.602Z,6.15
2023-05-05T13:13:45.698Z,5.47
2023-05-05T13:16:12.306Z,4.75
2023-05-05T13:18:49.667Z,5.85
2023-05-05T13:21:16.908Z,5.05
2023-05-05T13:23:46.498Z,4.47
2023-05-05T13:26:14.021Z,5.43
2023-05-05T13:28:41.149Z,5.13
2023-05-05T13:31:07.954Z,5.32
2023-05-05T13:33:35.142Z,5.00
2023-05-05T13:36:02.616Z,5.30
2023-05-05T13:38:29.448Z,5.38
2023-05-05T13:40:56.239Z,4.72
2023-05-05T13:43:22.699Z,5.15
2023-05-05T13:45:49.511Z,5.32
2023-05-05T13:48:16.370Z,4.57
2023-05-05T13:50:43.326Z,4.60
2023-05-05T13:53:11.552Z,4.40
2023-05-05T13:55:39.761Z,4.72
2023-05-05T13:58:06.282Z,5.20
2023-05-05T14:00:33.014Z,5.18
2023-05-05T14:03:00.186Z,5.63
2023-05-05T14:05:26.903Z,4.30
2023-05-05T14:07:54.262Z,4.72
2023-05-05T14:10:21.158Z,4.03
2023-05-05T14:12:47.817Z,4.30
2023-05-05T14:15:14.675Z,3.75
2023-05-05T14:17:41.358Z,3.08
2023-05-05T14:20:08.293Z,3.33
2023-05-05T14:22:34.981Z,3.15
2023-05-05T14:25:01.829Z,3.17
2023-05-05T14:27:28.706Z,3.40
2023-05-05T14:29:55.330Z,2.72
2023-05-05T14:32:23.292Z,3.05
2023-05-05T14:34:50.570Z,2.70
2023-05-05T14:37:17.591Z,2.40
2023-05-05T14:39:44.275Z,2.92
2023-05-05T14:42:11.091Z,2.08
2023-05-05T14:44:37.553Z,2.10
2023-05-05T14:47:04.286Z,2.95
2023-05-05T14:49:31.286Z,2.65
2023-05-05T14:51:57.817Z,2.95
2023-05-05T14:54:28.668Z,2.10
2023-05-05T14:56:56.294Z,1.90
2023-05-05T14:59:23.903Z,1.70
2023-05-05T15:01:50.449Z,1.83
2023-05-05T15:04:17.401Z,1.65
2023-05-05T15:06:43.940Z,1.60
2023-05-05T15:09:10.929Z,1.92
2023-05-05T15:11:38.289Z,1.80
2023-05-05T15:14:07.740Z,1.40
2023-05-05T15:16:35.351Z,2.00
2023-05-05T15:19:02.300Z,2.10
2023-05-05T15:21:29.065Z,1.65
2023-05-05T15:23:55.870Z,1.30
2023-05-05T15:26:23.849Z,1.80
2023-05-05T15:28:52.468Z,1.83
2023-05-05T15:31:18.976Z,1.55
2023-05-05T15:33:48.699Z,1.60
2023-05-05T15:36:16.218Z,1.85
2023-05-05T15:38:43.610Z,1.50
2023-05-05T15:41:10.605Z,2.33
2023-05-05T15:43:37.200Z,1.67
2023-05-05T15:46:04.144Z,1.50
2023-05-05T15:48:31.400Z,1.48
2023-05-05T15:50:58.015Z,1.38
2023-05-05T15:53:26.210Z,1.40
2023-05-05T15:55:52.745Z,1.30
2023-05-05T15:58:19.369Z,1.38
2023-05-05T16:00:46.129Z,1.20
2023-05-05T16:03:12.979Z,1.13
2023-05-05T16:05:39.548Z,1.50
2023-05-05T16:08:09.728Z,0.90
2023-05-05T16:10:37.507Z,1.20
2023-05-05T16:13:04.074Z,1.30
2023-05-05T16:15:30.989Z,1.45
2023-05-05T16:17:57.706Z,1.38
2023-05-05T16:20:25.853Z,1.40
2023-05-05T16:22:52.295Z,1.40
2023-05-05T16:25:20.221Z,1.10
2023-05-05T16:30:15.435Z,1.67
2023-05-05T16:32:42.307Z,1.70
2023-05-05T16:35:09.410Z,1.40
2023-05-05T16:37:36.285Z,1.48
2023-05-05T16:40:05.617Z,1.42
2023-05-05T16:42:32.087Z,1.33
2023-05-05T16:44:59.870Z,1.70
2023-05-05T16:47:27.252Z,2.13
2023-05-05T16:49:53.861Z,1.65
2023-05-05T16:52:20.563Z,1.80
2023-05-05T16:54:48.272Z,1.80
2023-05-05T16:57:14.797Z,1.60
2023-05-05T16:59:41.845Z,1.85
2023-05-05T17:02:08.409Z,1.80
2023-05-05T17:04:35.205Z,2.00
2023-05-05T17:07:01.666Z,2.28
2023-05-05T17:09:28.093Z,2.08
2023-05-05T17:11:56.031Z,1.95
2023-05-05T17:16:49.291Z,1.85
2023-05-05T17:19:15.933Z,2.00
2023-05-05T17:21:46.901Z,2.10
2023-05-05T17:24:13.465Z,1.75
2023-05-05T17:26:41.783Z,2.30
2023-05-05T17:29:10.023Z,1.85
2023-05-05T17:31:39.926Z,2.28
2023-05-05T17:34:06.514Z,2.15
2023-05-05T17:36:36.007Z,2.60
2023-05-05T17:39:02.796Z,2.40
2023-05-05T17:41:29.426Z,2.78
2023-05-05T17:43:56.260Z,2.72
2023-05-05T17:46:23.140Z,2.63
2023-05-05T17:48:49.963Z,2.95
2023-05-05T17:51:16.598Z,2.42
2023-05-05T17:53:43.957Z,3.13
2023-05-05T17:56:10.782Z,3.20
2023-05-05T17:58:37.647Z,2.83
2023-05-05T18:01:07.134Z,3.53
2023-05-05T18:03:40.983Z,3.08
2023-05-05T18:06:08.490Z,3.50
2023-05-05T18:08:35.296Z,2.38
2023-05-05T18:11:03.321Z,3.25
2023-05-05T18:13:30.246Z,3.30
2023-05-05T18:15:57.207Z,3.00
2023-05-05T18:18:23.913Z,3.50
2023-05-05T18:20:50.720Z,3.35
2023-05-05T18:23:17.593Z,4.40
2023-05-05T18:25:44.324Z,3.80
2023-05-05T18:28:10.989Z,4.20
2023-05-05T18:30:37.755Z,3.72
2023-05-05T18:33:04.694Z,3.53
2023-05-05T18:35:32.005Z,3.92
2023-05-05T18:38:01.336Z,4.32
2023-05-05T18:40:28.548Z,4.05
2023-05-05T18:42:55.251Z,3.83
2023-05-05T18:45:22.552Z,3.90
2023-05-05T18:47:49.131Z,3.80
2023-05-05T18:50:15.811Z,3.75
2023-05-05T18:52:42.393Z,3.90
2023-05-05T18:55:09.375Z,3.88
2023-05-05T18:57:36.152Z,3.35
2023-05-05T19:00:02.837Z,4.00
2023-05-05T19:02:29.491Z,4.00
2023-05-05T19:04:56.704Z,4.05
2023-05-05T19:07:34.310Z,4.15
2023-05-05T19:10:04.660Z,4.25
2023-05-05T19:12:32.386Z,3.80
2023-05-05T19:14:59.021Z,4.25
2023-05-05T19:17:25.679Z,3.90
2023-05-05T19:19:52.766Z,4.45
2023-05-05T19:22:20.826Z,4.28
2023-05-05T19:24:47.365Z,3.90
2023-05-05T19:27:16.562Z,4.43
2023-05-05T19:29:43.569Z,3.78
2023-05-05T19:32:10.163Z,4.05
2023-05-05T19:34:36.995Z,4.50
2023-05-05T19:37:03.674Z,4.05
2023-05-05T19:39:30.193Z,4.50
2023-05-05T19:41:57.831Z,4.85
2023-05-05T19:44:24.416Z,6.10
2023-05-05T19:46:52.757Z,4.53
2023-05-05T19:49:19.375Z,4.40
2023-05-05T19:51:47.631Z,3.70
2023-05-05T19:54:14.178Z,4.00
2023-05-05T19:56:40.795Z,5.05
2023-05-05T19:59:07.661Z,4.10
2023-05-05T20:04:06.300Z,4.65
2023-05-05T20:06:33.299Z,4.97
2023-05-05T20:09:02.089Z,4.75
2023-05-05T20:11:29.570Z,4.78
2023-05-05T20:13:57.528Z,4.80
2023-05-05T20:16:25.858Z,4.35
2023-05-05T20:18:52.628Z,4.80
2023-05-05T20:21:19.226Z,4.45
2023-05-05T20:23:46.549Z,5.03
2023-05-05T20:26:13.565Z,4.72
2023-05-05T20:28:41.843Z,4.65
2023-05-05T20:31:10.873Z,5.03
2023-05-05T20:33:37.475Z,4.95
2023-05-05T20:36:04.566Z,4.72
2023-05-05T20:38:31.182Z,4.75
2023-05-05T20:40:58.040Z,4.70
2023-05-05T20:43:24.965Z,4.38
2023-05-05T20:45:51.807Z,4.40
2023-05-05T20:48:18.944Z,4.47
2023-05-05T20:50:45.675Z,4.57
2023-05-05T20:53:15.444Z,4.43
2023-05-05T20:55:41.972Z,4.57
2023-05-05T20:58:08.536Z,4.18
2023-05-05T21:00:35.417Z,3.88
2023-05-05T21:03:04.986Z,4.40
2023-05-05T21:05:31.760Z,5.45
2023-05-05T21:07:59.977Z,4.05
2023-05-05T21:10:28.711Z,3.92
2023-05-05T21:12:55.314Z,5.38
2023-05-05T21:15:22.191Z,4.00
2023-05-05T21:17:51.276Z,3.92
2023-05-05T21:20:18.659Z,4.20
2023-05-05T21:22:46.032Z,3.33
2023-05-05T21:25:14.772Z,4.18
2023-05-05T21:27:42.119Z,3.70
2023-05-05T21:30:10.986Z,4.38
2023-05-05T21:32:38.774Z,4.18
2023-05-05T21:35:06.890Z,3.88
2023-05-05T21:37:33.515Z,4.28
2023-05-05T21:39:59.994Z,3.90
2023-05-05T21:42:28.997Z,4.85
2023-05-05T21:44:55.525Z,6.60
2023-05-05T21:47:22.276Z,9.95
2023-05-05T21:49:48.727Z,4.32
2023-05-05T21:52:15.260Z,5.68
2023-05-05T21:54:41.995Z,4.45
2023-05-05T21:57:08.486Z,4.50
2023-05-05T21:59:34.963Z,4.75
2023-05-05T22:02:01.796Z,3.83
2023-05-05T22:04:28.452Z,4.35
2023-05-05T22:06:55.266Z,4.43
2023-05-05T22:09:21.993Z,4.90
2023-05-05T22:11:48.472Z,4.85
2023-05-05T22:14:16.005Z,4.82
2023-05-05T22:16:42.951Z,3.97
2023-05-05T22:19:09.486Z,4.10
2023-05-05T22:21:36.005Z,4.57
2023-05-05T22:24:02.580Z,4.30
2023-05-05T22:26:29.300Z,4.45
2023-05-05T22:28:55.940Z,5.18
2023-05-05T22:31:22.472Z,4.97
2023-05-05T22:33:48.992Z,5.75
2023-05-05T22:36:15.573Z,5.38
2023-05-05T22:38:42.576Z,5.13
2023-05-05T22:41:09.122Z,4.93
2023-05-05T22:43:35.850Z,5.82
2023-05-05T22:46:02.386Z,5.63
2023-05-05T22:48:28.872Z,5.35
2023-05-05T22:50:55.366Z,5.20
2023-05-05T22:53:22.109Z,6.05
2023-05-05T22:55:48.689Z,5.32
2023-05-05T22:58:15.312Z,7.65
2023-05-05T23:00:41.808Z,5.53
2023-05-05T23:03:09.073Z,5.45
2023-05-05T23:05:36.035Z,6.00
2023-05-05T23:08:02.630Z,6.10
2023-05-05T23:10:30.098Z,5.68
2023-05-05T23:12:56.716Z,5.70
2023-05-05T23:15:25.023Z,6.28
2023-05-05T23:17:51.686Z,6.40
2023-05-05T23:20:18.483Z,6.28
2023-05-05T23:22:44.995Z,6.68
2023-05-05T23:25:11.628Z,6.47
2023-05-05T23:27:40.215Z,5.93
2023-05-05T23:30:08.409Z,6.72
2023-05-05T23:35:01.347Z,7.05
2023-05-05T23:37:27.839Z,6.65
2023-05-05T23:39:55.590Z,7.25
2023-05-05T23:42:22.197Z,7.75
2023-05-05T23:44:48.971Z,6.68
2023-05-05T23:47:15.579Z,7.47
2023-05-05T23:49:42.055Z,7.57
2023-05-05T23:52:09.114Z,6.97
2023-05-05T23:54:35.608Z,8.13
2023-05-05T23:57:02.218Z,8.15
2023-05-05T23:59:28.782Z,8.82
